Pearland, Texas
Current Conditions -  °F | °C
As of 12:53 PM on Sunday 23 Nov 2014 (Local Time) from KLVJ Reporting Station
Clear Clear  
Wind Chill: 77°   Ceiling: Unl
Heat Index: 79°   Visibility: 10mi
Dew Point: 56°   Wind: 12mph
Humidity: 48%   Direction: 240°WSW
Pressure: 29.61"   Gusts: 21mph
Location:  29.55°N, 95.26°W
Report Text: KLVJ 231853Z AUTO 24010G18KT 10SM CLR 25/13 A2961 RMK AO2 SLP027 T02500133
Loading
Personal Weather Stations






























Interactive Weather Map New forecast layout! Learn more

10-Day Weather Forecast

Advertisements
Track Severe Weather on mobile